Time;durP1;ratioP1;P1;durP2;ratioP2;P2;SDS_P1;SDS_P2;PMS_P1;PMS_P2;Temp;Humidity;BMP_temperature;BMP_pressure;BME280_temperature;BME280_humidity;BME280_pressure;Samples;Min_cycle;Max_cycle;Signal;HPM_P1;HPM_P2
2021/03/08 00:00:55;;;;;;;26.77;18.53;;;;;;;;;;5014333;28;20175;-72
2021/03/08 00:03:21;;;;;;;24.37;18.47;;;;;;;;;;5012303;28;20669;-73
2021/03/08 00:05:48;;;;;;;24.77;18.23;;;;;;;;;;5012080;28;20179;-73
2021/03/08 00:08:15;;;;;;;29.30;18.20;;;;;;;;;;5010418;28;20195;-74
2021/03/08 00:10:41;;;;;;;28.93;17.37;;;;;;;;;;5013953;28;20233;-73
2021/03/08 00:13:07;;;;;;;24.27;18.03;;;;;;;;;;5015220;28;20300;-73
2021/03/08 00:15:33;;;;;;;22.27;17.27;;;;;;;;;;5014354;28;20171;-73
2021/03/08 00:17:59;;;;;;;24.07;17.17;;;;;;;;;;5015107;28;20179;-73
2021/03/08 00:20:26;;;;;;;26.30;17.43;;;;;;;;;;5013269;28;20171;-71
2021/03/08 00:22:53;;;;;;;25.73;18.10;;;;;;;;;;5013155;28;20555;-74
2021/03/08 00:25:21;;;;;;;24.90;17.13;;;;;;;;;;5009905;28;20595;-74
2021/03/08 00:27:47;;;;;;;27.87;19.03;;;;;;;;;;5013489;28;20195;-73
2021/03/08 00:30:14;;;;;;;26.80;17.33;;;;;;;;;;5016507;28;20183;-73
2021/03/08 00:32:40;;;;;;;24.93;17.43;;;;;;;;;;5013630;28;20207;-73
2021/03/08 00:35:07;;;;;;;25.90;17.13;;;;;;;;;;5013306;28;20182;-74
2021/03/08 00:37:33;;;;;;;23.73;17.80;;;;;;;;;;5011811;28;20282;-73
2021/03/08 00:40:05;;;;;;;24.67;17.97;;;;;;;;;;5011640;28;20175;-74
2021/03/08 00:42:31;;;;;;;23.60;17.90;;;;;;;;;;5006094;28;20630;-73
2021/03/08 00:44:57;;;;;;;23.17;17.33;;;;;;;;;;5022828;28;20265;-73
2021/03/08 00:47:23;;;;;;;23.73;17.90;;;;;;;;;;5028778;28;20283;-73
2021/03/08 00:49:50;;;;;;;25.37;18.13;;;;;;;;;;5032276;28;20182;-73
2021/03/08 00:52:16;;;;;;;23.80;17.97;;;;;;;;;;5031763;28;20205;-73
2021/03/08 00:54:42;;;;;;;24.93;16.90;;;;;;;;;;5031085;28;20209;-73
2021/03/08 00:57:10;;;;;;;23.60;17.37;;;;;;;;;;5030984;28;20182;-74
2021/03/08 00:59:36;;;;;;;24.03;18.37;;;;;;;;;;5029248;28;20182;-74
2021/03/08 01:02:03;;;;;;;25.00;17.93;;;;;;;;;;5029055;28;20182;-74
2021/03/08 01:04:29;;;;;;;24.83;17.53;;;;;;;;;;5030723;28;20214;-74
2021/03/08 01:06:56;;;;;;;24.60;16.73;;;;;;;;;;5030799;28;20182;-74
2021/03/08 01:09:22;;;;;;;24.37;17.73;;;;;;;;;;5029317;28;20243;-74
2021/03/08 01:11:48;;;;;;;26.03;18.60;;;;;;;;;;5030332;28;20202;-74
2021/03/08 01:14:15;;;;;;;23.00;16.80;;;;;;;;;;5015612;28;20276;-74
2021/03/08 01:16:41;;;;;;;22.33;16.60;;;;;;;;;;5029651;28;20178;-74
2021/03/08 01:19:07;;;;;;;24.10;17.97;;;;;;;;;;5030568;28;20293;-74
2021/03/08 01:21:33;;;;;;;22.03;16.43;;;;;;;;;;5031132;28;20182;-74
2021/03/08 01:23:59;;;;;;;25.00;17.03;;;;;;;;;;5030474;28;20252;-74
2021/03/08 01:26:25;;;;;;;24.27;17.27;;;;;;;;;;5030250;28;20198;-74
2021/03/08 01:28:51;;;;;;;23.10;17.37;;;;;;;;;;5030342;28;20557;-74
2021/03/08 01:31:18;;;;;;;21.53;16.80;;;;;;;;;;5022773;28;20186;-74
2021/03/08 01:33:44;;;;;;;21.00;16.53;;;;;;;;;;5031435;28;20225;-74
2021/03/08 01:36:11;;;;;;;23.17;17.43;;;;;;;;;;5031093;28;20706;-74
2021/03/08 01:38:37;;;;;;;21.93;17.20;;;;;;;;;;5030301;28;20170;-74
2021/03/08 01:41:03;;;;;;;24.00;16.97;;;;;;;;;;5030337;28;20186;-74
2021/03/08 01:43:29;;;;;;;24.87;17.33;;;;;;;;;;5030056;28;20726;-74
2021/03/08 01:45:55;;;;;;;23.43;17.07;;;;;;;;;;5030160;28;20227;-74
2021/03/08 01:48:22;;;;;;;26.90;17.63;;;;;;;;;;5030251;28;20181;-73
2021/03/08 01:50:49;;;;;;;22.50;16.67;;;;;;;;;;5028831;28;20184;-74
2021/03/08 01:53:17;;;;;;;25.87;17.80;;;;;;;;;;5031642;28;20714;-74
2021/03/08 01:55:43;;;;;;;24.00;17.67;;;;;;;;;;5032748;28;20179;-74
2021/03/08 01:58:09;;;;;;;22.30;16.80;;;;;;;;;;5032658;28;20569;-74
2021/03/08 02:00:36;;;;;;;21.87;16.23;;;;;;;;;;5034323;28;20698;-74
2021/03/08 02:03:02;;;;;;;24.17;17.17;;;;;;;;;;5034134;28;20209;-73
2021/03/08 02:05:32;;;;;;;22.87;16.73;;;;;;;;;;5035175;28;20595;-74
2021/03/08 02:07:59;;;;;;;24.73;16.30;;;;;;;;;;5034660;28;20667;-73
2021/03/08 02:10:27;;;;;;;22.33;17.03;;;;;;;;;;5020733;28;20659;-73
2021/03/08 02:13:02;;;;;;;24.70;16.77;;;;;;;;;;5035081;28;20210;-73
2021/03/08 02:15:40;;;;;;;22.13;16.77;;;;;;;;;;5033981;28;20177;-72
2021/03/08 02:18:26;;;;;;;22.93;17.17;;;;;;;;;;5033667;28;20184;-73
2021/03/08 02:21:11;;;;;;;21.43;16.23;;;;;;;;;;5033730;28;20269;-71
2021/03/08 02:23:56;;;;;;;24.97;17.73;;;;;;;;;;5021077;28;20572;-72
2021/03/08 02:26:25;;;;;;;26.80;18.10;;;;;;;;;;5019084;28;20200;-73
2021/03/08 02:29:02;;;;;;;26.13;17.67;;;;;;;;;;5004000;28;20804;-72
2021/03/08 02:31:28;;;;;;;28.07;17.73;;;;;;;;;;5000998;28;20224;-72
2021/03/08 02:33:59;;;;;;;25.37;17.97;;;;;;;;;;5011468;28;20209;-74
2021/03/08 02:36:29;;;;;;;23.60;17.43;;;;;;;;;;4996050;28;20254;-73
2021/03/08 02:39:00;;;;;;;25.07;17.83;;;;;;;;;;4993145;28;22007;-72
2021/03/08 02:41:27;;;;;;;25.17;17.53;;;;;;;;;;4993925;28;20183;-72
2021/03/08 02:43:55;;;;;;;25.00;17.33;;;;;;;;;;5000485;28;20204;-73
2021/03/08 02:46:29;;;;;;;23.67;17.10;;;;;;;;;;4995788;28;20188;-73
2021/03/08 02:48:56;;;;;;;25.43;16.90;;;;;;;;;;4996279;28;20191;-73
2021/03/08 02:51:23;;;;;;;22.87;17.70;;;;;;;;;;5008319;28;20707;-73
2021/03/08 02:53:50;;;;;;;25.30;17.53;;;;;;;;;;5034860;28;20673;-72
2021/03/08 02:56:18;;;;;;;24.73;16.93;;;;;;;;;;5016262;28;20185;-73
2021/03/08 02:58:46;;;;;;;23.40;16.50;;;;;;;;;;4997018;28;20187;-74
2021/03/08 03:01:12;;;;;;;24.27;17.57;;;;;;;;;;4994044;28;20241;-73
2021/03/08 03:03:40;;;;;;;25.40;17.37;;;;;;;;;;5012015;28;20214;-73
2021/03/08 03:06:06;;;;;;;23.67;17.37;;;;;;;;;;5011603;28;20227;-73
2021/03/08 03:08:33;;;;;;;22.17;16.67;;;;;;;;;;5011514;28;20269;-73
2021/03/08 03:10:59;;;;;;;24.23;16.97;;;;;;;;;;5012052;28;20671;-73
2021/03/08 03:13:25;;;;;;;19.57;15.97;;;;;;;;;;5015147;28;20215;-73
2021/03/08 03:15:52;;;;;;;23.33;16.97;;;;;;;;;;5013240;28;20181;-73
2021/03/08 03:18:19;;;;;;;23.27;16.73;;;;;;;;;;5016013;28;20233;-73
2021/03/08 03:20:47;;;;;;;25.60;17.67;;;;;;;;;;5011952;28;20256;-73
2021/03/08 03:23:13;;;;;;;23.43;16.73;;;;;;;;;;5013853;28;20647;-73
2021/03/08 03:25:40;;;;;;;22.40;16.60;;;;;;;;;;5012832;28;20260;-73
2021/03/08 03:28:07;;;;;;;26.87;17.23;;;;;;;;;;5013777;28;20182;-73
2021/03/08 03:30:33;;;;;;;25.70;16.20;;;;;;;;;;5015373;28;20190;-73
2021/03/08 03:32:59;;;;;;;25.93;17.20;;;;;;;;;;5013773;28;20670;-74
2021/03/08 03:35:26;;;;;;;22.90;16.77;;;;;;;;;;5015040;28;20180;-74
2021/03/08 03:37:53;;;;;;;23.93;16.80;;;;;;;;;;5013304;28;20212;-73
2021/03/08 03:40:20;;;;;;;22.40;16.43;;;;;;;;;;5013522;28;20261;-74
2021/03/08 03:42:48;;;;;;;27.17;16.37;;;;;;;;;;5013358;28;20747;-73
2021/03/08 03:45:15;;;;;;;24.53;17.00;;;;;;;;;;5014661;28;20183;-74
2021/03/08 03:47:41;;;;;;;20.60;15.67;;;;;;;;;;5019145;28;20259;-72
2021/03/08 03:50:08;;;;;;;23.33;17.23;;;;;;;;;;5033806;28;20225;-71
2021/03/08 03:52:35;;;;;;;21.17;16.17;;;;;;;;;;5033665;28;20264;-74
2021/03/08 03:55:02;;;;;;;21.23;16.33;;;;;;;;;;5032462;28;20204;-72
2021/03/08 03:57:34;;;;;;;23.23;16.90;;;;;;;;;;5033562;28;20260;-73
2021/03/08 04:00:01;;;;;;;23.00;16.97;;;;;;;;;;5033817;28;20662;-73
2021/03/08 04:02:42;;;;;;;26.03;17.43;;;;;;;;;;5032320;28;20180;-73
2021/03/08 04:05:10;;;;;;;25.30;17.30;;;;;;;;;;5032299;28;20270;-73
2021/03/08 04:07:40;;;;;;;23.37;16.90;;;;;;;;;;5033856;28;20547;-73
2021/03/08 04:10:10;;;;;;;22.80;16.77;;;;;;;;;;5033489;28;20183;-73
2021/03/08 04:12:37;;;;;;;23.50;15.97;;;;;;;;;;5033283;28;20226;-73
2021/03/08 04:15:07;;;;;;;22.43;15.60;;;;;;;;;;5033354;28;20176;-73
2021/03/08 04:17:34;;;;;;;25.20;16.60;;;;;;;;;;5031966;28;20548;-73
2021/03/08 04:20:01;;;;;;;24.43;17.87;;;;;;;;;;5022502;28;20173;-73
2021/03/08 04:22:28;;;;;;;23.27;16.67;;;;;;;;;;5033191;28;20206;-73
2021/03/08 04:24:56;;;;;;;24.73;17.77;;;;;;;;;;5032277;28;20190;-73
2021/03/08 04:27:24;;;;;;;22.60;16.13;;;;;;;;;;5032339;28;20240;-73
2021/03/08 04:29:50;;;;;;;24.60;16.73;;;;;;;;;;5031804;28;20178;-73
2021/03/08 04:32:18;;;;;;;25.93;17.43;;;;;;;;;;5024541;28;20303;-72
2021/03/08 04:34:44;;;;;;;25.80;16.80;;;;;;;;;;5032938;28;20177;-73
2021/03/08 04:37:12;;;;;;;23.77;16.63;;;;;;;;;;5033003;28;20524;-73
2021/03/08 04:39:39;;;;;;;20.73;15.77;;;;;;;;;;5031720;28;20205;-73
2021/03/08 04:42:06;;;;;;;24.77;17.00;;;;;;;;;;5032965;28;20183;-73
2021/03/08 04:44:33;;;;;;;25.40;16.20;;;;;;;;;;5031447;28;20239;-73
2021/03/08 04:47:00;;;;;;;26.00;17.20;;;;;;;;;;5031594;28;20187;-73
2021/03/08 04:49:26;;;;;;;22.80;16.10;;;;;;;;;;5031393;28;20213;-73
2021/03/08 04:51:53;;;;;;;22.97;16.27;;;;;;;;;;5031068;28;20482;-73
2021/03/08 04:54:20;;;;;;;21.67;16.20;;;;;;;;;;5032565;28;20687;-72
2021/03/08 04:56:48;;;;;;;23.23;17.47;;;;;;;;;;5032960;28;20175;-73
2021/03/08 04:59:14;;;;;;;24.47;16.43;;;;;;;;;;5032854;28;20206;-73
2021/03/08 05:01:42;;;;;;;24.13;16.67;;;;;;;;;;5010895;28;20187;-73
2021/03/08 05:04:09;;;;;;;22.70;16.80;;;;;;;;;;5018069;28;20281;-73
2021/03/08 05:06:38;;;;;;;22.63;16.63;;;;;;;;;;5008398;28;20323;-73
2021/03/08 05:09:05;;;;;;;26.13;16.90;;;;;;;;;;5030539;28;20269;-73
2021/03/08 05:11:32;;;;;;;25.07;17.00;;;;;;;;;;5031270;28;20687;-73
2021/03/08 05:14:00;;;;;;;21.87;15.40;;;;;;;;;;5016542;28;20219;-72
2021/03/08 05:16:27;;;;;;;25.07;17.23;;;;;;;;;;5026150;28;20174;-73
2021/03/08 05:18:53;;;;;;;24.53;17.03;;;;;;;;;;5032486;28;20178;-74
2021/03/08 05:21:19;;;;;;;23.57;17.20;;;;;;;;;;5032251;28;20182;-73
2021/03/08 05:23:46;;;;;;;24.27;16.27;;;;;;;;;;5032190;28;20240;-73
2021/03/08 05:26:12;;;;;;;23.97;15.87;;;;;;;;;;5031217;28;20202;-73
2021/03/08 05:28:38;;;;;;;26.30;17.40;;;;;;;;;;5032084;28;20195;-73
2021/03/08 05:31:05;;;;;;;24.53;17.27;;;;;;;;;;5027885;28;20222;-73
2021/03/08 05:33:32;;;;;;;25.17;16.90;;;;;;;;;;5018140;28;20206;-73
2021/03/08 05:35:59;;;;;;;24.47;17.47;;;;;;;;;;5017814;28;20209;-73
2021/03/08 05:38:28;;;;;;;24.93;17.40;;;;;;;;;;5009882;28;20609;-73
2021/03/08 05:41:17;;;;;;;25.33;17.43;;;;;;;;;;5031560;28;20182;-73
2021/03/08 05:43:45;;;;;;;24.37;16.20;;;;;;;;;;5026768;28;20734;-73
2021/03/08 05:46:24;;;;;;;21.67;15.50;;;;;;;;;;5032166;28;20247;-71
2021/03/08 05:48:53;;;;;;;24.67;17.17;;;;;;;;;;5010498;28;20187;-73
2021/03/08 05:51:29;;;;;;;27.87;16.47;;;;;;;;;;5017972;28;20186;-72
2021/03/08 05:53:54;;;;;;;23.20;15.87;;;;;;;;;;5032115;28;20263;-73
2021/03/08 05:56:30;;;;;;;25.30;17.57;;;;;;;;;;5023021;28;20174;-73
2021/03/08 05:59:15;;;;;;;24.77;17.20;;;;;;;;;;5012253;28;20246;-72
2021/03/08 06:01:47;;;;;;;25.33;17.27;;;;;;;;;;5018492;28;20186;-73
2021/03/08 06:04:23;;;;;;;22.43;16.13;;;;;;;;;;5030989;28;20202;-72
2021/03/08 06:06:52;;;;;;;22.63;16.03;;;;;;;;;;5032092;28;20193;-71
2021/03/08 06:09:22;;;;;;;22.97;17.00;;;;;;;;;;5031952;28;20179;-73
2021/03/08 06:11:52;;;;;;;25.90;16.37;;;;;;;;;;5030906;28;20601;-72
2021/03/08 06:14:20;;;;;;;25.07;16.97;;;;;;;;;;5007610;28;20192;-73
2021/03/08 06:16:46;;;;;;;22.97;16.17;;;;;;;;;;5031798;28;20649;-73
2021/03/08 06:19:13;;;;;;;26.57;17.77;;;;;;;;;;5016468;28;20611;-73
2021/03/08 06:21:40;;;;;;;25.37;16.30;;;;;;;;;;5022030;28;20583;-73
2021/03/08 06:24:06;;;;;;;23.13;16.10;;;;;;;;;;5014778;28;20286;-73
2021/03/08 06:26:33;;;;;;;21.17;15.97;;;;;;;;;;5027832;28;20282;-72
2021/03/08 06:28:59;;;;;;;22.97;16.27;;;;;;;;;;5031694;28;20237;-73
2021/03/08 06:31:26;;;;;;;25.50;16.07;;;;;;;;;;5023106;28;20232;-73
2021/03/08 06:33:53;;;;;;;23.07;16.23;;;;;;;;;;5031762;28;20565;-72
2021/03/08 06:36:19;;;;;;;25.30;16.03;;;;;;;;;;5006524;28;20182;-73
2021/03/08 06:38:45;;;;;;;21.20;15.90;;;;;;;;;;5029784;28;20184;-71
2021/03/08 06:41:11;;;;;;;24.83;16.40;;;;;;;;;;5034326;28;20182;-72
2021/03/08 06:43:38;;;;;;;22.00;15.20;;;;;;;;;;5035243;28;20714;-72
2021/03/08 06:46:04;;;;;;;26.10;16.97;;;;;;;;;;5021654;28;20187;-72
2021/03/08 06:48:31;;;;;;;23.47;16.30;;;;;;;;;;5023032;28;20190;-73
2021/03/08 06:51:17;;;;;;;22.03;15.87;;;;;;;;;;5034999;28;20178;-71
2021/03/08 06:53:44;;;;;;;20.83;15.77;;;;;;;;;;5034861;28;20195;-72
2021/03/08 06:56:21;;;;;;;23.67;16.47;;;;;;;;;;5035034;28;20645;-72
2021/03/08 06:59:04;;;;;;;20.03;14.57;;;;;;;;;;5034939;28;20185;-72
2021/03/08 07:01:34;;;;;;;25.37;15.10;;;;;;;;;;5035080;28;20217;-72
2021/03/08 07:04:01;;;;;;;22.77;15.53;;;;;;;;;;5024617;28;20229;-73
2021/03/08 07:06:28;;;;;;;23.20;16.27;;;;;;;;;;5019328;28;20167;-72
2021/03/08 07:09:05;;;;;;;20.37;15.00;;;;;;;;;;5016395;28;20175;-73
2021/03/08 07:11:32;;;;;;;22.17;15.70;;;;;;;;;;5032997;28;20170;-73
2021/03/08 07:13:59;;;;;;;20.37;14.90;;;;;;;;;;5028904;28;20201;-72
2021/03/08 07:16:38;;;;;;;22.47;16.07;;;;;;;;;;5034466;28;20258;-73
2021/03/08 07:19:06;;;;;;;24.73;15.87;;;;;;;;;;5029845;28;20204;-73
2021/03/08 07:21:32;;;;;;;19.87;14.30;;;;;;;;;;5016083;28;20179;-72
2021/03/08 07:24:09;;;;;;;18.57;14.20;;;;;;;;;;5034439;28;20194;-73
2021/03/08 07:26:35;;;;;;;20.40;13.80;;;;;;;;;;5019034;28;20186;-72
2021/03/08 07:29:12;;;;;;;17.80;13.63;;;;;;;;;;5011687;28;20179;-73
2021/03/08 07:31:39;;;;;;;18.93;14.33;;;;;;;;;;5021454;28;20187;-72
2021/03/08 07:34:08;;;;;;;18.37;13.30;;;;;;;;;;5026438;28;20241;-73
2021/03/08 07:36:35;;;;;;;16.37;13.47;;;;;;;;;;5017958;28;20524;-73
2021/03/08 07:39:08;;;;;;;19.53;13.80;;;;;;;;;;5022111;28;20179;-73
2021/03/08 07:41:34;;;;;;;19.27;13.80;;;;;;;;;;5027949;28;20174;-73
2021/03/08 07:44:08;;;;;;;17.67;12.97;;;;;;;;;;5033937;28;20199;-73
2021/03/08 07:46:35;;;;;;;16.63;12.77;;;;;;;;;;5034271;28;20171;-73
2021/03/08 07:49:02;;;;;;;16.53;12.17;;;;;;;;;;5033977;28;20599;-72
2021/03/08 07:51:28;;;;;;;15.97;12.40;;;;;;;;;;5033381;28;20178;-72
2021/03/08 07:54:01;;;;;;;13.47;11.47;;;;;;;;;;5032580;28;20617;-73
2021/03/08 07:56:28;;;;;;;14.10;12.13;;;;;;;;;;5033807;28;20163;-72
2021/03/08 07:58:54;;;;;;;14.77;11.57;;;;;;;;;;5033763;28;20170;-73
2021/03/08 08:01:20;;;;;;;12.60;11.20;;;;;;;;;;5029192;28;20284;-73
2021/03/08 08:03:47;;;;;;;14.03;11.00;;;;;;;;;;5024580;28;20565;-74
2021/03/08 08:06:13;;;;;;;12.97;10.10;;;;;;;;;;5032426;28;20167;-70
2021/03/08 08:08:53;;;;;;;11.63;10.40;;;;;;;;;;5033695;28;20182;-71
2021/03/08 08:11:20;;;;;;;12.60;9.67;;;;;;;;;;5022270;28;20174;-74
2021/03/08 08:13:54;;;;;;;11.73;10.03;;;;;;;;;;5016867;28;20199;-74
2021/03/08 08:16:23;;;;;;;11.23;9.93;;;;;;;;;;5013359;28;20673;-74
2021/03/08 08:18:53;;;;;;;14.73;10.63;;;;;;;;;;5019237;28;20186;-73
2021/03/08 08:21:20;;;;;;;11.17;10.03;;;;;;;;;;5029569;28;20187;-74
2021/03/08 08:23:47;;;;;;;14.23;11.57;;;;;;;;;;5015725;28;20197;-74
2021/03/08 08:26:15;;;;;;;13.17;10.40;;;;;;;;;;5014385;28;20191;-74
2021/03/08 08:28:43;;;;;;;11.43;9.87;;;;;;;;;;5015171;28;20192;-73
2021/03/08 08:31:09;;;;;;;12.83;10.67;;;;;;;;;;5011206;28;20196;-74
2021/03/08 08:33:36;;;;;;;13.23;10.30;;;;;;;;;;4998561;28;20234;-73
2021/03/08 08:36:11;;;;;;;12.00;10.13;;;;;;;;;;5031917;28;20178;-72
2021/03/08 08:38:38;;;;;;;11.63;10.17;;;;;;;;;;5027540;28;20263;-74
2021/03/08 08:41:37;;;;;;;11.30;9.77;;;;;;;;;;5016293;28;20190;-73
2021/03/08 08:44:12;;;;;;;15.43;11.17;;;;;;;;;;4980779;28;20225;-74
2021/03/08 08:46:42;;;;;;;11.77;10.67;;;;;;;;;;4996471;28;20204;-72
2021/03/08 08:49:08;;;;;;;21.77;15.47;;;;;;;;;;4998107;28;20203;-73
2021/03/08 08:52:00;;;;;;;19.07;14.23;;;;;;;;;;5005763;28;20182;-73
2021/03/08 08:54:32;;;;;;;13.37;11.43;;;;;;;;;;5003369;28;20264;-73
2021/03/08 08:56:58;;;;;;;14.80;11.20;;;;;;;;;;5007169;28;20641;-73
2021/03/08 08:59:25;;;;;;;10.93;9.83;;;;;;;;;;4996471;28;20219;-73
2021/03/08 09:04:44;;;;;;;12.07;10.83;;;;;;;;;;5007435;28;20203;-73
2021/03/08 09:07:23;;;;;;;12.77;10.27;;;;;;;;;;5004315;28;20218;-76
2021/03/08 09:09:49;;;;;;;12.53;10.80;;;;;;;;;;5004724;28;20673;-73
2021/03/08 09:12:54;;;;;;;10.90;9.90;;;;;;;;;;4993998;28;20198;-72
2021/03/08 09:15:25;;;;;;;12.33;9.40;;;;;;;;;;4977276;28;20765;-72
2021/03/08 09:17:56;;;;;;;11.20;10.00;;;;;;;;;;4975274;28;20323;-73
2021/03/08 09:20:24;;;;;;;11.43;10.23;;;;;;;;;;4996570;28;20192;-73
2021/03/08 09:22:55;;;;;;;11.33;10.13;;;;;;;;;;5001043;28;20210;-72
2021/03/08 09:25:27;;;;;;;16.30;10.67;;;;;;;;;;5012603;28;20184;-73
2021/03/08 09:28:01;;;;;;;12.90;10.50;;;;;;;;;;4998569;28;20326;-73
2021/03/08 09:30:32;;;;;;;12.13;10.47;;;;;;;;;;5003217;28;20211;-71
2021/03/08 09:33:02;;;;;;;12.53;10.77;;;;;;;;;;5004851;28;20206;-71
2021/03/08 09:35:33;;;;;;;11.80;10.60;;;;;;;;;;5000338;28;20182;-71
2021/03/08 09:38:01;;;;;;;13.57;10.70;;;;;;;;;;5000541;28;20183;-70
2021/03/08 09:40:28;;;;;;;11.90;10.20;;;;;;;;;;5011395;28;20641;-70
2021/03/08 09:42:55;;;;;;;12.43;10.30;;;;;;;;;;5009519;28;20296;-73
2021/03/08 09:45:22;;;;;;;12.70;10.60;;;;;;;;;;5008927;28;20274;-72
2021/03/08 09:47:50;;;;;;;12.13;10.83;;;;;;;;;;5009593;28;20273;-72
2021/03/08 09:50:17;;;;;;;12.43;11.13;;;;;;;;;;5008780;28;20581;-73
2021/03/08 09:52:45;;;;;;;11.20;10.10;;;;;;;;;;5010375;28;20642;-73
2021/03/08 09:55:15;;;;;;;12.00;9.67;;;;;;;;;;5007510;28;20172;-72
2021/03/08 09:57:41;;;;;;;10.63;9.57;;;;;;;;;;4994604;28;20195;-72
2021/03/08 10:00:10;;;;;;;13.60;10.77;;;;;;;;;;5001237;28;20180;-73
2021/03/08 10:02:37;;;;;;;14.07;10.07;;;;;;;;;;5002007;28;20204;-73
2021/03/08 10:05:07;;;;;;;13.90;10.57;;;;;;;;;;5008604;28;20241;-73
2021/03/08 10:07:34;;;;;;;11.97;10.60;;;;;;;;;;5004022;28;20200;-73
2021/03/08 10:10:10;;;;;;;12.83;11.00;;;;;;;;;;4994485;28;20634;-73
2021/03/08 10:12:37;;;;;;;14.03;12.07;;;;;;;;;;5004746;28;20923;-74
2021/03/08 10:15:04;;;;;;;12.07;10.97;;;;;;;;;;5002687;28;20171;-73
2021/03/08 10:17:30;;;;;;;13.33;12.03;;;;;;;;;;5002712;28;20207;-73
2021/03/08 10:19:57;;;;;;;14.97;11.77;;;;;;;;;;5007416;28;20175;-73
2021/03/08 10:22:36;;;;;;;14.87;12.27;;;;;;;;;;5002228;28;20190;-73
2021/03/08 10:25:18;;;;;;;15.60;12.43;;;;;;;;;;5004022;28;20542;-73
2021/03/08 10:27:44;;;;;;;12.67;11.37;;;;;;;;;;5001227;28;20266;-74
2021/03/08 10:30:19;;;;;;;13.53;12.13;;;;;;;;;;5006664;28;20272;-73
2021/03/08 10:32:46;;;;;;;14.17;12.30;;;;;;;;;;5004613;28;20214;-74
2021/03/08 10:35:13;;;;;;;14.17;11.60;;;;;;;;;;5009586;28;20522;-73
2021/03/08 10:37:40;;;;;;;16.80;13.97;;;;;;;;;;5013139;28;20186;-74
2021/03/08 10:40:07;;;;;;;13.30;11.90;;;;;;;;;;5006052;28;20179;-74
2021/03/08 10:42:33;;;;;;;13.83;12.43;;;;;;;;;;5015635;28;20237;-74
2021/03/08 10:45:00;;;;;;;14.43;12.60;;;;;;;;;;5016528;28;20183;-74
2021/03/08 10:47:26;;;;;;;14.03;11.93;;;;;;;;;;5028095;28;20187;-73
2021/03/08 10:49:53;;;;;;;13.53;11.23;;;;;;;;;;5010773;28;20263;-74
2021/03/08 10:52:23;;;;;;;14.17;12.67;;;;;;;;;;4999692;28;20290;-74
2021/03/08 10:54:49;;;;;;;15.13;11.60;;;;;;;;;;5008901;28;20723;-74
2021/03/08 10:57:15;;;;;;;13.60;12.20;;;;;;;;;;5006093;28;20188;-74
2021/03/08 10:59:45;;;;;;;13.03;11.70;;;;;;;;;;5013165;28;20245;-75
2021/03/08 11:02:14;;;;;;;12.27;11.07;;;;;;;;;;4998390;28;20307;-73
2021/03/08 11:04:40;;;;;;;12.63;11.07;;;;;;;;;;5006527;28;20208;-74
2021/03/08 11:07:07;;;;;;;12.50;11.20;;;;;;;;;;5018923;28;20180;-74
2021/03/08 11:09:34;;;;;;;15.90;11.03;;;;;;;;;;5021214;28;20175;-74
2021/03/08 11:12:01;;;;;;;12.10;10.63;;;;;;;;;;5012583;28;20195;-73
2021/03/08 11:14:27;;;;;;;12.13;10.83;;;;;;;;;;5008632;28;20647;-73
2021/03/08 11:16:55;;;;;;;12.87;11.07;;;;;;;;;;5005824;28;20204;-74
2021/03/08 11:19:22;;;;;;;12.60;11.40;;;;;;;;;;5002443;28;20190;-71
2021/03/08 11:22:08;;;;;;;12.43;11.23;;;;;;;;;;5004826;28;20238;-76
2021/03/08 11:24:40;;;;;;;15.13;13.53;;;;;;;;;;5011614;28;20227;-74
2021/03/08 11:27:18;;;;;;;12.73;11.43;;;;;;;;;;5006303;28;20203;-72
2021/03/08 11:29:56;;;;;;;12.53;11.03;;;;;;;;;;4997288;28;20189;-74
2021/03/08 11:32:24;;;;;;;12.53;11.30;;;;;;;;;;5007670;28;20200;-75
2021/03/08 11:34:51;;;;;;;14.57;13.00;;;;;;;;;;5001820;28;20674;-74
2021/03/08 11:37:18;;;;;;;11.57;10.37;;;;;;;;;;5005293;28;20184;-73
2021/03/08 11:39:45;;;;;;;12.13;10.77;;;;;;;;;;5007248;28;20180;-74
2021/03/08 11:42:12;;;;;;;11.80;10.70;;;;;;;;;;5004742;28;20682;-74
2021/03/08 11:44:38;;;;;;;11.00;9.60;;;;;;;;;;5005241;28;20181;-74
2021/03/08 11:47:04;;;;;;;14.30;10.73;;;;;;;;;;5011666;28;20211;-72
2021/03/08 11:49:31;;;;;;;11.93;10.27;;;;;;;;;;5006575;28;20196;-74
2021/03/08 11:51:57;;;;;;;10.87;9.87;;;;;;;;;;4995310;28;20681;-74
2021/03/08 11:54:23;;;;;;;11.77;10.63;;;;;;;;;;5009615;28;20210;-74
2021/03/08 11:56:51;;;;;;;12.43;10.87;;;;;;;;;;4996850;28;20205;-73
2021/03/08 11:59:18;;;;;;;12.60;11.30;;;;;;;;;;5001745;28;20181;-74
2021/03/08 12:01:44;;;;;;;11.67;10.60;;;;;;;;;;5001905;28;20193;-73
2021/03/08 12:04:10;;;;;;;11.87;10.77;;;;;;;;;;4994882;28;20210;-74
2021/03/08 12:06:36;;;;;;;12.40;10.70;;;;;;;;;;4999802;28;20180;-73
2021/03/08 12:09:02;;;;;;;11.43;10.23;;;;;;;;;;4997643;28;20193;-74
2021/03/08 12:11:29;;;;;;;11.27;10.17;;;;;;;;;;5010777;28;20204;-74
2021/03/08 12:13:55;;;;;;;11.83;9.40;;;;;;;;;;5015982;28;20295;-74
2021/03/08 12:16:21;;;;;;;12.37;10.17;;;;;;;;;;5006444;28;20241;-75
2021/03/08 12:18:47;;;;;;;11.77;10.57;;;;;;;;;;5028417;28;20856;-76
2021/03/08 12:21:14;;;;;;;12.57;10.33;;;;;;;;;;5029794;28;20170;-76
2021/03/08 12:23:40;;;;;;;10.90;9.73;;;;;;;;;;5031878;28;20587;-76
2021/03/08 12:26:06;;;;;;;11.70;10.10;;;;;;;;;;5018202;28;20575;-75
2021/03/08 12:28:32;;;;;;;10.87;9.90;;;;;;;;;;5004757;28;20653;-75
2021/03/08 12:30:58;;;;;;;11.43;10.20;;;;;;;;;;4996754;28;20190;-76
2021/03/08 12:33:24;;;;;;;11.17;10.07;;;;;;;;;;5009768;28;20218;-76
2021/03/08 12:35:51;;;;;;;18.57;12.20;;;;;;;;;;4996376;28;20259;-76
2021/03/08 12:38:17;;;;;;;14.77;12.23;;;;;;;;;;5009671;28;20265;-76
2021/03/08 12:40:45;;;;;;;13.63;10.17;;;;;;;;;;5016802;28;20182;-76
2021/03/08 12:43:11;;;;;;;11.30;8.90;;;;;;;;;;5032794;28;20231;-76
2021/03/08 12:45:38;;;;;;;10.63;9.53;;;;;;;;;;5032862;28;20678;-75
2021/03/08 12:48:04;;;;;;;11.37;9.90;;;;;;;;;;5032858;28;20182;-76
2021/03/08 12:50:30;;;;;;;13.97;11.43;;;;;;;;;;5033065;28;20189;-74
2021/03/08 12:52:56;;;;;;;11.23;9.80;;;;;;;;;;5032763;28;20206;-74
2021/03/08 12:55:22;;;;;;;14.90;11.40;;;;;;;;;;5032806;28;20546;-74
2021/03/08 12:57:48;;;;;;;30.77;19.20;;;;;;;;;;5032677;28;20169;-75
2021/03/08 13:00:14;;;;;;;12.93;10.93;;;;;;;;;;5027707;28;20171;-74
2021/03/08 13:02:41;;;;;;;11.23;9.93;;;;;;;;;;5029970;28;20213;-75
2021/03/08 13:05:08;;;;;;;12.20;10.90;;;;;;;;;;5032599;28;20179;-76
2021/03/08 13:07:34;;;;;;;10.73;9.73;;;;;;;;;;5032582;28;20185;-75
2021/03/08 13:10:00;;;;;;;10.70;9.70;;;;;;;;;;5032751;28;20190;-76
2021/03/08 13:12:26;;;;;;;12.77;11.47;;;;;;;;;;5032348;28;20585;-76
2021/03/08 13:14:52;;;;;;;17.10;12.30;;;;;;;;;;5032362;28;20181;-75
2021/03/08 13:17:18;;;;;;;11.87;10.57;;;;;;;;;;5032510;28;20629;-76
2021/03/08 13:19:44;;;;;;;8.97;8.07;;;;;;;;;;5032455;28;20588;-76
2021/03/08 13:22:11;;;;;;;12.93;10.53;;;;;;;;;;5031066;28;20181;-75
2021/03/08 13:24:37;;;;;;;9.57;8.57;;;;;;;;;;5032336;28;20686;-75
2021/03/08 13:27:06;;;;;;;9.97;9.00;;;;;;;;;;5032080;28;20706;-75
2021/03/08 13:29:36;;;;;;;10.77;9.10;;;;;;;;;;5032313;28;20170;-75
2021/03/08 13:32:02;;;;;;;9.83;8.83;;;;;;;;;;5032109;28;20663;-75
2021/03/08 13:34:29;;;;;;;10.57;9.10;;;;;;;;;;5032316;28;20653;-75
2021/03/08 13:36:55;;;;;;;10.90;9.37;;;;;;;;;;5032184;28;20188;-74
2021/03/08 13:39:21;;;;;;;10.03;8.97;;;;;;;;;;5015360;28;20224;-75
2021/03/08 13:41:47;;;;;;;19.33;13.47;;;;;;;;;;5032079;28;20569;-75
2021/03/08 13:44:13;;;;;;;10.40;9.33;;;;;;;;;;5032102;28;20207;-74
2021/03/08 13:46:39;;;;;;;11.93;10.73;;;;;;;;;;5032049;28;20184;-74
2021/03/08 13:49:05;;;;;;;11.07;8.63;;;;;;;;;;5033291;28;20721;-74
2021/03/08 13:51:31;;;;;;;8.80;8.00;;;;;;;;;;5035987;28;20659;-74
2021/03/08 13:53:57;;;;;;;9.70;8.90;;;;;;;;;;5035980;28;20733;-75
2021/03/08 13:56:23;;;;;;;10.50;9.20;;;;;;;;;;5035989;28;20645;-75
2021/03/08 13:58:49;;;;;;;10.43;8.90;;;;;;;;;;5036016;28;20185;-77
2021/03/08 14:01:16;;;;;;;10.60;8.83;;;;;;;;;;5027247;28;20671;-74
2021/03/08 14:03:44;;;;;;;18.77;12.20;;;;;;;;;;5035919;28;20537;-75
2021/03/08 14:06:10;;;;;;;11.00;9.83;;;;;;;;;;5035895;28;20554;-76
2021/03/08 14:08:36;;;;;;;9.70;8.73;;;;;;;;;;5035919;28;20207;-75
2021/03/08 14:11:02;;;;;;;11.07;9.80;;;;;;;;;;5035773;28;20185;-75
2021/03/08 14:13:28;;;;;;;39.70;16.27;;;;;;;;;;5034316;28;20207;-74
2021/03/08 14:15:55;;;;;;;10.10;8.93;;;;;;;;;;5035671;28;20644;-75
2021/03/08 14:18:21;;;;;;;23.07;12.33;;;;;;;;;;5028621;28;20174;-75
2021/03/08 14:20:47;;;;;;;11.43;9.87;;;;;;;;;;5023372;28;20251;-76
2021/03/08 14:23:13;;;;;;;10.37;9.37;;;;;;;;;;5035607;28;20283;-74
2021/03/08 14:25:42;;;;;;;63.60;22.57;;;;;;;;;;5034035;28;21041;-74
2021/03/08 14:28:09;;;;;;;11.90;9.80;;;;;;;;;;5035674;28;20677;-74